San Antonio, Valles Caldera, New Mexico Weather observations

Data are for 10 minute period ending at time listed.
 Day   Time   Solar   Ave.   Ave.  Ave.  Vector  Max.   Baro.   Total    
  of    of     Rad.   Air    Rel.  Wind   Wind   Wind  Press.  Precip.   
Year   Day            Temp.  Hum.  Speed  Dir.   Gust                    
2015   (MST)  Kw/m2    F      %     mph   deg.    mph    mb.     in.     
-------------------------------------------------------------------------
 114   15:20   0.57   43.6    46    9.0   292    15.5   396.2    0.00 
 114   15:30   0.53   45.5    41    9.3   285    17.3   395.9    0.00 
 114   15:40   0.61   47.2    38   10.8   281    16.7   396.2    0.00 
 114   15:50   0.50   46.7    38   12.2   274    19.1   396.2    0.00 
 114   16:00   0.54   47.1    36   10.7   280    16.7   396.2    0.00 
 114   16:10   0.57   47.6    34   12.0   252    17.9   395.9    0.00 
 114   16:20   0.18   46.4    35   11.5   288    18.5   395.9    0.00 
 114   16:30   0.09   43.5    40   12.6   295    21.5   395.5    0.00 
 114   16:40   0.11   43.0    42   12.7   280    22.1   395.5    0.00 
 114   16:50   0.26   43.4    43   14.8   265    23.9   395.5    0.00 
 114   17:00   0.39   45.1    40   15.4   267    25.6   395.9    0.00 
 114   17:10   0.25   46.1    37   14.3   274    22.1   395.5    0.00 
 114   17:20   0.22   44.7    40   15.3   298    22.7   395.5    0.00 
 114   17:30   0.11   43.6    41   11.8   287    16.7   395.5    0.00 
 114   17:40   0.08   42.0    43   11.3   282    16.7   395.5    0.00 
 114   17:50   0.08   41.5    45   12.3   287    23.9   395.2    0.00 
 114   18:00   0.06   41.2    48   11.3   305    19.1   395.5    0.00 
 114   18:10   0.04   40.6    53   14.3   298    28.0   395.5    0.00 
 114   18:20   0.01   38.9    59   20.0   296    35.2   395.2    0.01 
 114   18:30   0.01   37.4    60   12.4   301    20.9   395.5    0.00 
 114   18:40   0.01   37.6    57   11.5   304    18.5   395.2    0.00 
 114   18:50   0.00   37.7    55    7.7   310    14.9   395.2    0.00 
 114   19:00   0.00   37.4    55    7.2   308    11.9   395.2    0.00 
 114   19:10   0.00   37.4    55    8.5   303    13.7   395.2    0.00 
 114   19:20   0.00   37.9    55    8.8   299    14.3   395.2    0.00 
 114   19:30   0.00   38.4    55    8.8   301    17.3   395.2    0.00 
 114   19:40   0.00   38.8    56   10.5   296    15.5   395.2    0.00 
 114   19:50   0.00   39.0    58   12.3   293    20.9   395.2    0.00 
 114   20:00   0.00   36.7    74   10.7   292    17.9   395.9    0.00 
 114   20:10   0.00   34.6    83    5.4   314     8.4   396.5    0.00 
 114   20:20   0.00   34.0    86    5.1   305     7.2   396.9    0.00 
 114   20:30   0.00   33.9    87    3.2   306     6.0   396.9    0.00 
 114   20:40   0.00   33.9    88    4.4   287     8.4   397.2    0.00 
 114   20:50   0.00   33.7    89    3.9   294     6.0   397.2    0.00 
 114   21:00   0.00   33.4    90    3.0   296     6.0   397.2    0.00 
 114   21:10   0.00   33.0    90    2.8   295     4.2   397.2    0.00 
 114   21:20   0.00   32.8    92    2.7   333     4.2   397.2    0.00 
 114   21:30   0.00   33.0    92    3.8   304     6.6   397.6    0.00 
 114   21:40   0.00   33.2    92    4.5   313     6.6   397.6    0.00 
 114   21:50   0.00   33.8    92    5.4   318    11.9   397.6    0.00 
 114   22:00   0.00   33.9    90    5.2   314     9.0   397.2    0.00 
 114   22:10   0.00   33.5    91    5.1   312     9.0   397.6    0.00 
 114   22:20   0.00   33.8    91    4.1   315     7.2   397.6    0.00 
 114   22:30   0.00   33.9    91    4.0   326     6.6   397.6    0.00 
 114   22:40   0.00   33.9    91    5.4   333     9.0   397.2    0.00 
 114   22:50   0.00   34.4    90    4.8   333     7.2   397.2    0.00 
 114   23:00   0.00   34.8    89    5.0   330     7.2   397.2    0.00 
 114   23:10   0.00   34.9    88    4.3   327     7.2   397.2    0.00 
 114   23:20   0.00   34.9    88    5.0   319     8.4   396.9    0.00 
 114   23:30   0.00   34.9    88    5.5   327     8.4   396.9    0.00 
 114   23:40   0.00   35.0    88    5.1   327     8.4   397.2    0.00 
 114   23:50   0.00   35.0    88    5.6   318    10.2   397.2    0.00 
 115    0:00   0.00   34.9    88    5.6   322     9.6   397.2    0.00 
 115    0:10   0.00   35.0    88    7.2   311    10.2   397.2    0.00 
 115    0:20   0.00   35.0    87    7.4   306    10.8   396.9    0.00 
 115    0:30   0.00   34.8    87    6.6   305    11.9   396.9    0.00 
 115    0:40   0.00   34.5    87    8.2   302    16.1   396.9    0.00 
 115    0:50   0.00   34.7    86    5.2   311    10.8   396.9    0.00 
 115    1:00   0.00   34.8    87    5.2   300     8.4   396.9    0.00 
 115    1:10   0.00   35.0    86    4.8   324    10.2   396.9    0.00 
 115    1:20   0.00   35.0    86    4.1   315     9.6   396.9    0.00 
 115    1:30   0.00   34.8    86    6.0   312    11.3   396.9    0.00 
 115    1:40   0.00   34.8    86    5.1   320    11.9   396.9    0.00 
 115    1:50   0.00   34.5    86    4.8   307     9.6   396.9    0.00 
 115    2:00   0.00   34.4    87    6.7   304    11.9   396.9    0.00 
 115    2:10   0.00   34.6    86    4.3   315     9.0   396.9    0.00 
 115    2:20   0.00   34.7    87    3.5   314     7.8   396.9    0.00 
 115    2:30   0.00   34.8    87    3.8   297     6.0   396.9    0.00 
 115    2:40   0.00   34.8    87    5.9   295    11.3   396.9    0.00 
 115    2:50   0.00   34.9    86    6.6   286     9.6   396.9    0.00 
 115    3:00   0.00   34.8    86    6.9   289    11.9   396.9    0.00 
 115    3:10   0.00   34.9    86    5.9   317    11.3   396.9    0.00 
 115    3:20   0.00   34.9    85    7.6   308    16.1   396.9    0.00 
 115    3:30   0.00   34.8    85    8.6   304    15.5   396.5    0.00 
 115    3:40   0.00   34.6    86    7.7   293    14.9   396.9    0.00 
 115    3:50   0.00   34.5    86    6.3   305    14.9   396.9    0.00 
 115    4:00   0.00   34.5    85    5.5   322    11.9   396.5    0.00 
 115    4:10   0.00   34.4    85    6.1   309    12.5   396.9    0.00 
 115    4:20   0.00   34.3    86    7.7   300    14.3   396.9    0.00 
 115    4:30   0.00   34.2    86   10.3   302    16.7   396.9    0.00 
 115    4:40   0.00   34.1    86    9.4   303    15.5   396.9    0.00 
 115    4:50   0.00   34.1    86   10.0   306    16.1   396.9    0.00 
 115    5:00   0.00   34.0    86    7.8   297    13.7   396.9    0.00 
 115    5:10   0.00   33.9    87    7.3   300    13.7   396.9    0.00 
 115    5:20   0.00   33.9    87    5.3   304     8.4   396.9    0.00 
 115    5:30   0.00   33.9    87    6.5   300    10.8   396.9    0.00 
 115    5:40   0.00   33.9    87    8.1   300    13.1   396.9    0.00 
 115    5:50   0.01   33.8    88    6.6   292    10.8   396.9    0.00 
 115    6:00   0.01   33.8    88    6.9   296    10.8   396.9    0.00 
 115    6:10   0.01   33.8    88    6.2   302     9.0   396.9    0.00 
 115    6:20   0.02   33.9    87    5.7   302     7.8   396.9    0.00 
 115    6:30   0.04   34.0    87    5.7   299     9.0   396.9    0.00 
 115    6:40   0.03   34.2    86    4.0   294     6.6   396.9    0.00 
 115    6:50   0.04   34.2    86    3.8   301     6.0   396.9    0.00 
 115    7:00   0.04   34.4    85    3.1   306     6.0   396.9    0.00 
 115    7:10   0.06   34.9    85    3.4   288     7.8   396.9    0.00 
 115    7:20   0.08   35.6    83    4.7   294     7.8   396.5    0.00 
 115    7:30   0.10   36.2    81    4.5   300     8.4   396.5    0.00 
 115    7:40   0.17   37.4    77    7.7   291    16.1   396.2    0.00 
 115    7:50   0.15   37.6    76    9.2   283    14.3   396.2    0.00 
 115    8:00   0.22   38.3    76    8.7   282    14.3   396.2    0.00 
 115    8:10   0.15   38.5    74    8.0   284    12.5   396.2    0.00 
 115    8:20   0.41   40.0    71    8.2   286    13.1   396.2    0.00 
 115    8:30   0.32   40.5    69    8.9   274    13.7   396.2    0.00 
 115    8:40   0.23   39.8    68   10.9   282    15.5   396.2    0.00 
 115    8:50   0.26   39.8    71   10.7   267    16.1   396.2    0.00 
 115    9:00   0.46   40.2    70    9.7   278    16.7   396.2    0.00 
 115    9:10   0.28   42.6    63    7.3   288    12.5   396.2    0.00 
 115    9:20   0.20   40.8    63    9.1   296    14.3   395.9    0.00 
 115    9:30   0.48   41.9    62    7.2   281    12.5   396.2    0.00 
 115    9:40   0.24   41.5    62    8.6   284    13.7   395.9    0.00 
 115    9:50   0.40   42.0    61    9.2   293    13.7   396.2    0.00 
 115   10:00   0.27   42.5    60    8.3   282    14.3   396.2    0.00 
 115   10:10   0.11   40.4    66    8.8   297    16.1   395.9    0.00 
 115   10:20   0.23   39.4    69    5.7   308     9.0   395.9    0.00 
 115   10:30   0.34   41.0    68    6.0   258     9.6   396.2    0.00 
 115   10:40   0.56   41.8    66    5.7   252    10.2   396.5    0.00 
 115   10:50   0.39   43.1    63    6.9   261    12.5   396.5    0.00 
 115   11:00   0.35   42.7    62    7.8   250    14.3   396.2    0.00 
 115   11:10   0.28   42.5    62    9.0   271    20.3   396.2    0.00 
 115   11:20   0.30   42.9    63    6.5   307    10.8   396.2    0.00 
 115   11:30   0.25   42.9    62    6.0   304    11.3   396.2    0.00 
 115   11:40   0.26   42.8    61    7.6   290    11.3   396.2    0.00 
 115   11:50   0.33   43.0    57    9.5   251    14.9   395.9    0.00 
 115   12:00   0.26   42.9    58    8.7   268    13.7   395.9    0.00 
 115   12:10   0.41   43.1    60   11.0   271    16.7   396.2    0.00 
 115   12:20   0.50   44.4    57    9.3   288    15.5   396.2    0.00 
 115   12:30   0.35   44.6    55    9.4   286    15.5   396.2    0.00 
 115   12:40   0.37   43.8    58    8.4   263    12.5   396.2    0.00 
 115   12:50   0.52   44.4    57    8.8   253    13.7   396.5    0.00 
 115   13:00   0.52   45.6    52    6.7   268    10.8   396.5    0.00 
 115   13:10   0.41   45.9    50    7.0   253    11.3   396.2    0.00 
 115   13:20   0.25   44.7    52    6.8   251    11.9   395.9    0.00 
 115   13:30   0.34   45.5    51    7.5   265    11.3   396.2    0.00 
 115   13:40   0.56   46.7    49    8.8   253    14.3   396.5    0.00 
 115   13:50   0.32   46.6    49    6.4   279    10.2   396.2    0.00 
 115   14:00   0.33   46.8    49    5.5   289    10.2   396.2    0.00 
 115   14:10   0.23   46.0    48    6.3   287    11.9   395.9    0.00 
 115   14:20   0.35   46.3    49    6.8   246     9.6   396.2    0.00 
 115   14:30   0.51   47.7    47    6.4   257    14.9   396.2    0.00 
 115   14:40   0.87   51.0    42    8.8   286    15.5   396.9    0.00 
 115   14:50   0.56   51.0    41    8.5   249    13.7   396.9    0.00 
 115   15:00   0.34   48.6    44    7.6   254    17.9   396.2    0.00 
 115   15:10   0.62   50.3    41    9.4   281    24.5   396.5    0.00 

Return to San Antonio, Valles Caldera graphs page.


Western Regional Climate Center,wrcc@dri.edu